sensor_id;sensor_type;location;lat;lon;timestamp;P1;durP1;ratioP1;P2;durP2;ratioP2
11247;SDS011;5681;53.316;13.950;2023-02-19T00:01:45;17.90;;;7.60;;
11247;SDS011;5681;53.316;13.950;2023-02-19T00:04:13;16.13;;;7.43;;
11247;SDS011;5681;53.316;13.950;2023-02-19T00:06:41;11.70;;;7.07;;
11247;SDS011;5681;53.316;13.950;2023-02-19T00:09:08;15.67;;;7.30;;
11247;SDS011;5681;53.316;13.950;2023-02-19T00:11:34;13.00;;;7.37;;
11247;SDS011;5681;53.316;13.950;2023-02-19T00:14:02;10.93;;;7.00;;
11247;SDS011;5681;53.316;13.950;2023-02-19T00:16:29;18.63;;;7.87;;
11247;SDS011;5681;53.316;13.950;2023-02-19T00:18:57;15.00;;;7.40;;
11247;SDS011;5681;53.316;13.950;2023-02-19T00:21:25;12.07;;;7.03;;
11247;SDS011;5681;53.316;13.950;2023-02-19T00:23:55;21.33;;;7.10;;
11247;SDS011;5681;53.316;13.950;2023-02-19T00:26:23;13.47;;;7.13;;
11247;SDS011;5681;53.316;13.950;2023-02-19T00:28:50;15.63;;;7.07;;
11247;SDS011;5681;53.316;13.950;2023-02-19T00:31:19;14.37;;;7.50;;
11247;SDS011;5681;53.316;13.950;2023-02-19T00:33:47;13.33;;;6.97;;
11247;SDS011;5681;53.316;13.950;2023-02-19T00:36:14;16.57;;;7.07;;
11247;SDS011;5681;53.316;13.950;2023-02-19T00:38:41;16.00;;;7.03;;
11247;SDS011;5681;53.316;13.950;2023-02-19T00:41:09;9.87;;;7.13;;
11247;SDS011;5681;53.316;13.950;2023-02-19T00:43:46;15.30;;;6.90;;
11247;SDS011;5681;53.316;13.950;2023-02-19T00:46:14;16.33;;;7.70;;
11247;SDS011;5681;53.316;13.950;2023-02-19T00:48:42;13.73;;;7.50;;
11247;SDS011;5681;53.316;13.950;2023-02-19T00:51:08;13.77;;;7.73;;
11247;SDS011;5681;53.316;13.950;2023-02-19T00:53:35;12.50;;;7.33;;
11247;SDS011;5681;53.316;13.950;2023-02-19T00:56:01;17.40;;;7.80;;
11247;SDS011;5681;53.316;13.950;2023-02-19T00:58:28;15.23;;;7.47;;
11247;SDS011;5681;53.316;13.950;2023-02-19T01:00:54;15.03;;;6.80;;
11247;SDS011;5681;53.316;13.950;2023-02-19T01:03:20;17.40;;;7.77;;
11247;SDS011;5681;53.316;13.950;2023-02-19T01:05:48;10.63;;;6.70;;
11247;SDS011;5681;53.316;13.950;2023-02-19T01:08:15;13.63;;;7.30;;
11247;SDS011;5681;53.316;13.950;2023-02-19T01:10:41;10.00;;;6.90;;
11247;SDS011;5681;53.316;13.950;2023-02-19T01:13:08;17.40;;;7.77;;
11247;SDS011;5681;53.316;13.950;2023-02-19T01:15:34;11.87;;;6.50;;
11247;SDS011;5681;53.316;13.950;2023-02-19T01:18:01;12.00;;;7.83;;
11247;SDS011;5681;53.316;13.950;2023-02-19T01:20:27;10.83;;;7.10;;
11247;SDS011;5681;53.316;13.950;2023-02-19T01:22:55;15.80;;;6.93;;
11247;SDS011;5681;53.316;13.950;2023-02-19T01:25:21;14.27;;;6.83;;
11247;SDS011;5681;53.316;13.950;2023-02-19T01:27:48;14.73;;;7.07;;
11247;SDS011;5681;53.316;13.950;2023-02-19T01:30:17;15.33;;;6.43;;
11247;SDS011;5681;53.316;13.950;2023-02-19T01:32:43;12.83;;;7.10;;
11247;SDS011;5681;53.316;13.950;2023-02-19T01:35:10;14.17;;;6.97;;
11247;SDS011;5681;53.316;13.950;2023-02-19T01:37:36;11.90;;;7.07;;
11247;SDS011;5681;53.316;13.950;2023-02-19T01:40:04;13.83;;;6.67;;
11247;SDS011;5681;53.316;13.950;2023-02-19T01:42:31;13.00;;;7.03;;
11247;SDS011;5681;53.316;13.950;2023-02-19T01:45:14;14.03;;;6.77;;
11247;SDS011;5681;53.316;13.950;2023-02-19T01:47:44;17.63;;;6.93;;
11247;SDS011;5681;53.316;13.950;2023-02-19T01:50:10;11.03;;;7.00;;
11247;SDS011;5681;53.316;13.950;2023-02-19T01:52:37;14.63;;;7.03;;
11247;SDS011;5681;53.316;13.950;2023-02-19T01:55:05;14.13;;;6.47;;
11247;SDS011;5681;53.316;13.950;2023-02-19T01:57:34;15.20;;;7.17;;
11247;SDS011;5681;53.316;13.950;2023-02-19T02:00:04;17.83;;;6.83;;
11247;SDS011;5681;53.316;13.950;2023-02-19T02:02:33;14.53;;;7.07;;
11247;SDS011;5681;53.316;13.950;2023-02-19T02:04:59;16.00;;;6.23;;
11247;SDS011;5681;53.316;13.950;2023-02-19T02:07:26;15.70;;;6.77;;
11247;SDS011;5681;53.316;13.950;2023-02-19T02:10:11;10.67;;;6.80;;
11247;SDS011;5681;53.316;13.950;2023-02-19T02:12:47;12.60;;;6.60;;
11247;SDS011;5681;53.316;13.950;2023-02-19T02:15:15;15.80;;;6.57;;
11247;SDS011;5681;53.316;13.950;2023-02-19T02:17:45;11.27;;;6.73;;
11247;SDS011;5681;53.316;13.950;2023-02-19T02:20:21;16.17;;;7.23;;
11247;SDS011;5681;53.316;13.950;2023-02-19T02:22:58;22.13;;;7.27;;
11247;SDS011;5681;53.316;13.950;2023-02-19T02:31:34;14.07;;;6.23;;
11247;SDS011;5681;53.316;13.950;2023-02-19T02:34:03;10.53;;;6.03;;
11247;SDS011;5681;53.316;13.950;2023-02-19T02:36:33;15.07;;;6.53;;
11247;SDS011;5681;53.316;13.950;2023-02-19T02:39:01;19.43;;;6.83;;
11247;SDS011;5681;53.316;13.950;2023-02-19T02:41:31;16.57;;;7.60;;
11247;SDS011;5681;53.316;13.950;2023-02-19T02:43:58;18.50;;;7.73;;
11247;SDS011;5681;53.316;13.950;2023-02-19T02:46:26;19.17;;;7.97;;
11247;SDS011;5681;53.316;13.950;2023-02-19T02:48:56;16.77;;;6.93;;
11247;SDS011;5681;53.316;13.950;2023-02-19T02:51:24;15.63;;;6.77;;
11247;SDS011;5681;53.316;13.950;2023-02-19T02:53:53;15.67;;;6.83;;
11247;SDS011;5681;53.316;13.950;2023-02-19T02:56:40;12.43;;;6.87;;
11247;SDS011;5681;53.316;13.950;2023-02-19T02:59:08;18.27;;;7.03;;
11247;SDS011;5681;53.316;13.950;2023-02-19T03:01:36;16.33;;;7.57;;
11247;SDS011;5681;53.316;13.950;2023-02-19T03:04:25;13.57;;;6.67;;
11247;SDS011;5681;53.316;13.950;2023-02-19T03:06:53;21.00;;;6.80;;
11247;SDS011;5681;53.316;13.950;2023-02-19T03:09:21;17.27;;;7.47;;
11247;SDS011;5681;53.316;13.950;2023-02-19T03:11:54;13.20;;;6.70;;
11247;SDS011;5681;53.316;13.950;2023-02-19T03:14:42;13.40;;;6.93;;
11247;SDS011;5681;53.316;13.950;2023-02-19T03:17:30;16.77;;;7.27;;
11247;SDS011;5681;53.316;13.950;2023-02-19T03:20:20;12.20;;;6.80;;
11247;SDS011;5681;53.316;13.950;2023-02-19T03:22:48;14.70;;;6.40;;
11247;SDS011;5681;53.316;13.950;2023-02-19T03:25:16;18.60;;;7.27;;
11247;SDS011;5681;53.316;13.950;2023-02-19T03:28:03;14.20;;;7.30;;
11247;SDS011;5681;53.316;13.950;2023-02-19T03:30:31;13.80;;;6.43;;
11247;SDS011;5681;53.316;13.950;2023-02-19T03:32:59;17.80;;;7.33;;
11247;SDS011;5681;53.316;13.950;2023-02-19T03:35:29;17.10;;;7.47;;
11247;SDS011;5681;53.316;13.950;2023-02-19T03:37:59;15.53;;;7.13;;
11247;SDS011;5681;53.316;13.950;2023-02-19T03:40:28;16.23;;;7.73;;
11247;SDS011;5681;53.316;13.950;2023-02-19T03:42:57;18.13;;;7.40;;
11247;SDS011;5681;53.316;13.950;2023-02-19T03:45:31;18.80;;;7.67;;
11247;SDS011;5681;53.316;13.950;2023-02-19T03:50:50;16.00;;;7.83;;
11247;SDS011;5681;53.316;13.950;2023-02-19T03:53:23;18.07;;;6.80;;
11247;SDS011;5681;53.316;13.950;2023-02-19T03:55:58;16.33;;;7.57;;
11247;SDS011;5681;53.316;13.950;2023-02-19T03:58:31;20.87;;;7.87;;
11247;SDS011;5681;53.316;13.950;2023-02-19T04:01:01;17.60;;;7.47;;
11247;SDS011;5681;53.316;13.950;2023-02-19T04:03:31;18.40;;;7.30;;
11247;SDS011;5681;53.316;13.950;2023-02-19T04:06:02;20.23;;;7.97;;
11247;SDS011;5681;53.316;13.950;2023-02-19T04:08:32;20.93;;;7.60;;
11247;SDS011;5681;53.316;13.950;2023-02-19T04:11:00;15.43;;;7.37;;
11247;SDS011;5681;53.316;13.950;2023-02-19T04:13:28;16.67;;;7.10;;
11247;SDS011;5681;53.316;13.950;2023-02-19T04:15:59;15.20;;;6.70;;
11247;SDS011;5681;53.316;13.950;2023-02-19T04:18:28;13.93;;;7.10;;
11247;SDS011;5681;53.316;13.950;2023-02-19T04:20:56;16.17;;;7.20;;
11247;SDS011;5681;53.316;13.950;2023-02-19T04:23:28;16.63;;;7.23;;
11247;SDS011;5681;53.316;13.950;2023-02-19T04:25:56;19.87;;;7.77;;
11247;SDS011;5681;53.316;13.950;2023-02-19T04:28:24;13.13;;;7.00;;
11247;SDS011;5681;53.316;13.950;2023-02-19T04:30:50;15.57;;;6.90;;
11247;SDS011;5681;53.316;13.950;2023-02-19T04:33:17;16.63;;;7.10;;
11247;SDS011;5681;53.316;13.950;2023-02-19T04:35:43;16.40;;;6.80;;
11247;SDS011;5681;53.316;13.950;2023-02-19T04:38:10;15.03;;;6.17;;
11247;SDS011;5681;53.316;13.950;2023-02-19T04:40:39;17.83;;;7.07;;
11247;SDS011;5681;53.316;13.950;2023-02-19T04:43:05;19.70;;;7.13;;
11247;SDS011;5681;53.316;13.950;2023-02-19T04:45:31;17.07;;;6.20;;
11247;SDS011;5681;53.316;13.950;2023-02-19T04:47:58;15.67;;;6.93;;
11247;SDS011;5681;53.316;13.950;2023-02-19T04:50:24;19.50;;;7.57;;
11247;SDS011;5681;53.316;13.950;2023-02-19T04:52:51;16.80;;;6.20;;
11247;SDS011;5681;53.316;13.950;2023-02-19T04:55:17;17.30;;;6.43;;
11247;SDS011;5681;53.316;13.950;2023-02-19T04:57:45;19.63;;;6.70;;
11247;SDS011;5681;53.316;13.950;2023-02-19T05:00:11;17.23;;;6.13;;
11247;SDS011;5681;53.316;13.950;2023-02-19T05:02:38;16.00;;;6.90;;
11247;SDS011;5681;53.316;13.950;2023-02-19T05:05:05;16.83;;;6.27;;
11247;SDS011;5681;53.316;13.950;2023-02-19T05:07:31;11.40;;;6.10;;
11247;SDS011;5681;53.316;13.950;2023-02-19T05:09:58;19.87;;;6.83;;
11247;SDS011;5681;53.316;13.950;2023-02-19T05:12:24;16.30;;;7.00;;
11247;SDS011;5681;53.316;13.950;2023-02-19T05:14:52;16.37;;;5.97;;
11247;SDS011;5681;53.316;13.950;2023-02-19T05:17:18;16.73;;;6.17;;
11247;SDS011;5681;53.316;13.950;2023-02-19T05:19:45;14.87;;;6.33;;
11247;SDS011;5681;53.316;13.950;2023-02-19T05:22:11;16.13;;;6.37;;
11247;SDS011;5681;53.316;13.950;2023-02-19T05:24:38;17.37;;;6.27;;
11247;SDS011;5681;53.316;13.950;2023-02-19T05:27:04;15.30;;;5.70;;
11247;SDS011;5681;53.316;13.950;2023-02-19T05:29:30;19.77;;;6.43;;
11247;SDS011;5681;53.316;13.950;2023-02-19T05:31:58;19.57;;;5.80;;
11247;SDS011;5681;53.316;13.950;2023-02-19T05:34:24;15.87;;;5.33;;
11247;SDS011;5681;53.316;13.950;2023-02-19T05:36:51;13.90;;;5.47;;
11247;SDS011;5681;53.316;13.950;2023-02-19T05:39:19;20.27;;;5.80;;
11247;SDS011;5681;53.316;13.950;2023-02-19T05:41:45;15.33;;;5.50;;
11247;SDS011;5681;53.316;13.950;2023-02-19T05:44:12;13.30;;;5.50;;
11247;SDS011;5681;53.316;13.950;2023-02-19T05:46:38;14.80;;;5.93;;
11247;SDS011;5681;53.316;13.950;2023-02-19T05:49:06;13.77;;;5.27;;
11247;SDS011;5681;53.316;13.950;2023-02-19T05:51:32;15.70;;;5.20;;
11247;SDS011;5681;53.316;13.950;2023-02-19T05:53:58;15.80;;;5.37;;
11247;SDS011;5681;53.316;13.950;2023-02-19T05:56:32;12.03;;;5.57;;
11247;SDS011;5681;53.316;13.950;2023-02-19T05:58:59;13.50;;;5.40;;
11247;SDS011;5681;53.316;13.950;2023-02-19T06:01:28;12.37;;;5.17;;
11247;SDS011;5681;53.316;13.950;2023-02-19T06:03:55;18.23;;;5.33;;
11247;SDS011;5681;53.316;13.950;2023-02-19T06:06:24;10.77;;;5.00;;
11247;SDS011;5681;53.316;13.950;2023-02-19T06:08:51;15.60;;;5.13;;
11247;SDS011;5681;53.316;13.950;2023-02-19T06:11:17;14.37;;;5.80;;
11247;SDS011;5681;53.316;13.950;2023-02-19T06:13:44;13.90;;;5.13;;
11247;SDS011;5681;53.316;13.950;2023-02-19T06:16:10;13.63;;;5.70;;
11247;SDS011;5681;53.316;13.950;2023-02-19T06:18:37;12.03;;;5.37;;
11247;SDS011;5681;53.316;13.950;2023-02-19T06:21:06;13.17;;;5.53;;
11247;SDS011;5681;53.316;13.950;2023-02-19T06:23:35;14.63;;;5.67;;
11247;SDS011;5681;53.316;13.950;2023-02-19T06:26:06;15.73;;;5.67;;
11247;SDS011;5681;53.316;13.950;2023-02-19T06:28:33;13.50;;;5.20;;
11247;SDS011;5681;53.316;13.950;2023-02-19T06:30:59;14.43;;;4.93;;
11247;SDS011;5681;53.316;13.950;2023-02-19T06:33:26;10.33;;;4.90;;
11247;SDS011;5681;53.316;13.950;2023-02-19T06:35:52;13.27;;;5.23;;
11247;SDS011;5681;53.316;13.950;2023-02-19T06:38:19;11.83;;;5.03;;
11247;SDS011;5681;53.316;13.950;2023-02-19T06:40:47;13.80;;;5.17;;
11247;SDS011;5681;53.316;13.950;2023-02-19T06:43:13;14.50;;;4.70;;
11247;SDS011;5681;53.316;13.950;2023-02-19T06:45:40;16.03;;;4.60;;
11247;SDS011;5681;53.316;13.950;2023-02-19T06:48:06;17.60;;;6.20;;
11247;SDS011;5681;53.316;13.950;2023-02-19T06:50:32;14.43;;;5.00;;
11247;SDS011;5681;53.316;13.950;2023-02-19T06:52:59;14.73;;;5.47;;
11247;SDS011;5681;53.316;13.950;2023-02-19T06:55:25;15.07;;;4.43;;
11247;SDS011;5681;53.316;13.950;2023-02-19T06:57:53;15.90;;;6.03;;
11247;SDS011;5681;53.316;13.950;2023-02-19T07:00:20;12.23;;;5.20;;
11247;SDS011;5681;53.316;13.950;2023-02-19T07:02:46;15.00;;;6.10;;
11247;SDS011;5681;53.316;13.950;2023-02-19T07:05:12;12.57;;;5.07;;
11247;SDS011;5681;53.316;13.950;2023-02-19T07:07:39;15.90;;;5.30;;
11247;SDS011;5681;53.316;13.950;2023-02-19T07:10:05;17.87;;;5.00;;
11247;SDS011;5681;53.316;13.950;2023-02-19T07:12:32;14.70;;;4.63;;
11247;SDS011;5681;53.316;13.950;2023-02-19T07:14:59;13.27;;;4.87;;
11247;SDS011;5681;53.316;13.950;2023-02-19T07:17:26;15.00;;;5.00;;
11247;SDS011;5681;53.316;13.950;2023-02-19T07:19:52;18.10;;;5.10;;
11247;SDS011;5681;53.316;13.950;2023-02-19T07:22:19;15.70;;;4.90;;
11247;SDS011;5681;53.316;13.950;2023-02-19T07:24:45;15.50;;;5.30;;
11247;SDS011;5681;53.316;13.950;2023-02-19T07:27:11;15.90;;;5.10;;
11247;SDS011;5681;53.316;13.950;2023-02-19T07:29:38;15.63;;;4.73;;
11247;SDS011;5681;53.316;13.950;2023-02-19T07:32:05;15.73;;;5.07;;
11247;SDS011;5681;53.316;13.950;2023-02-19T07:34:32;18.57;;;4.90;;
11247;SDS011;5681;53.316;13.950;2023-02-19T07:36:58;21.10;;;4.37;;
11247;SDS011;5681;53.316;13.950;2023-02-19T07:39:24;14.30;;;4.73;;
11247;SDS011;5681;53.316;13.950;2023-02-19T07:41:51;12.60;;;4.73;;
11247;SDS011;5681;53.316;13.950;2023-02-19T07:44:17;15.83;;;4.70;;
11247;SDS011;5681;53.316;13.950;2023-02-19T07:46:43;15.27;;;5.20;;
11247;SDS011;5681;53.316;13.950;2023-02-19T07:49:11;17.80;;;4.37;;
11247;SDS011;5681;53.316;13.950;2023-02-19T07:51:37;14.43;;;4.27;;
11247;SDS011;5681;53.316;13.950;2023-02-19T07:54:05;14.17;;;4.10;;
11247;SDS011;5681;53.316;13.950;2023-02-19T07:56:32;16.63;;;4.37;;
11247;SDS011;5681;53.316;13.950;2023-02-19T07:58:58;15.87;;;4.10;;
11247;SDS011;5681;53.316;13.950;2023-02-19T08:01:25;12.40;;;3.90;;
11247;SDS011;5681;53.316;13.950;2023-02-19T08:04:05;14.33;;;4.03;;
11247;SDS011;5681;53.316;13.950;2023-02-19T08:09:00;13.67;;;4.00;;
11247;SDS011;5681;53.316;13.950;2023-02-19T08:11:26;20.23;;;3.93;;
11247;SDS011;5681;53.316;13.950;2023-02-19T08:14:10;12.63;;;4.10;;
11247;SDS011;5681;53.316;13.950;2023-02-19T08:16:36;20.30;;;4.50;;
11247;SDS011;5681;53.316;13.950;2023-02-19T08:19:03;21.03;;;4.07;;
11247;SDS011;5681;53.316;13.950;2023-02-19T08:21:29;23.53;;;4.27;;
11247;SDS011;5681;53.316;13.950;2023-02-19T08:23:57;13.57;;;4.10;;
11247;SDS011;5681;53.316;13.950;2023-02-19T08:26:23;20.57;;;4.63;;
11247;SDS011;5681;53.316;13.950;2023-02-19T08:28:50;14.53;;;3.93;;
11247;SDS011;5681;53.316;13.950;2023-02-19T08:31:16;15.27;;;4.30;;
11247;SDS011;5681;53.316;13.950;2023-02-19T08:33:42;13.90;;;4.00;;
11247;SDS011;5681;53.316;13.950;2023-02-19T08:36:09;15.10;;;4.07;;
11247;SDS011;5681;53.316;13.950;2023-02-19T08:38:36;17.33;;;4.23;;
11247;SDS011;5681;53.316;13.950;2023-02-19T08:41:05;13.20;;;3.73;;
11247;SDS011;5681;53.316;13.950;2023-02-19T08:43:32;15.10;;;3.87;;
11247;SDS011;5681;53.316;13.950;2023-02-19T08:45:58;15.67;;;3.37;;
11247;SDS011;5681;53.316;13.950;2023-02-19T08:48:25;12.30;;;3.63;;
11247;SDS011;5681;53.316;13.950;2023-02-19T08:50:52;11.10;;;3.90;;
11247;SDS011;5681;53.316;13.950;2023-02-19T08:53:19;19.40;;;3.53;;
11247;SDS011;5681;53.316;13.950;2023-02-19T08:55:46;15.57;;;3.50;;
11247;SDS011;5681;53.316;13.950;2023-02-19T08:58:14;18.67;;;3.37;;
11247;SDS011;5681;53.316;13.950;2023-02-19T09:00:40;10.70;;;3.37;;
11247;SDS011;5681;53.316;13.950;2023-02-19T09:03:06;13.47;;;3.43;;
11247;SDS011;5681;53.316;13.950;2023-02-19T09:05:33;11.53;;;3.00;;
11247;SDS011;5681;53.316;13.950;2023-02-19T09:07:59;12.10;;;3.00;;
11247;SDS011;5681;53.316;13.950;2023-02-19T09:10:26;14.33;;;3.33;;
11247;SDS011;5681;53.316;13.950;2023-02-19T09:12:52;12.10;;;2.90;;
11247;SDS011;5681;53.316;13.950;2023-02-19T09:15:20;11.77;;;3.10;;
11247;SDS011;5681;53.316;13.950;2023-02-19T09:17:49;15.63;;;3.57;;
11247;SDS011;5681;53.316;13.950;2023-02-19T09:20:16;10.70;;;2.87;;
11247;SDS011;5681;53.316;13.950;2023-02-19T09:22:42;9.70;;;3.10;;
11247;SDS011;5681;53.316;13.950;2023-02-19T09:25:09;15.20;;;2.73;;
11247;SDS011;5681;53.316;13.950;2023-02-19T09:27:35;15.33;;;3.33;;
11247;SDS011;5681;53.316;13.950;2023-02-19T09:30:02;11.57;;;2.70;;
11247;SDS011;5681;53.316;13.950;2023-02-19T09:32:30;10.73;;;2.67;;
11247;SDS011;5681;53.316;13.950;2023-02-19T09:34:57;13.70;;;3.07;;
11247;SDS011;5681;53.316;13.950;2023-02-19T09:37:24;11.33;;;2.70;;
11247;SDS011;5681;53.316;13.950;2023-02-19T09:39:51;12.77;;;2.65;;
11247;SDS011;5681;53.316;13.950;2023-02-19T09:42:18;11.13;;;2.90;;
11247;SDS011;5681;53.316;13.950;2023-02-19T09:44:47;13.70;;;2.93;;
11247;SDS011;5681;53.316;13.950;2023-02-19T09:47:14;13.47;;;3.13;;
11247;SDS011;5681;53.316;13.950;2023-02-19T09:49:44;13.33;;;2.53;;
11247;SDS011;5681;53.316;13.950;2023-02-19T09:52:17;8.57;;;2.27;;
11247;SDS011;5681;53.316;13.950;2023-02-19T09:54:44;12.23;;;2.37;;
11247;SDS011;5681;53.316;13.950;2023-02-19T09:57:12;11.90;;;2.77;;
11247;SDS011;5681;53.316;13.950;2023-02-19T09:59:40;8.50;;;2.10;;
11247;SDS011;5681;53.316;13.950;2023-02-19T10:02:11;13.65;;;2.67;;
11247;SDS011;5681;53.316;13.950;2023-02-19T10:04:40;12.90;;;2.70;;
11247;SDS011;5681;53.316;13.950;2023-02-19T10:07:10;12.18;;;2.03;;
11247;SDS011;5681;53.316;13.950;2023-02-19T10:09:37;14.23;;;2.38;;
11247;SDS011;5681;53.316;13.950;2023-02-19T10:12:04;9.43;;;2.35;;
11247;SDS011;5681;53.316;13.950;2023-02-19T10:14:39;7.68;;;2.00;;
11247;SDS011;5681;53.316;13.950;2023-02-19T10:17:07;10.02;;;2.00;;
11247;SDS011;5681;53.316;13.950;2023-02-19T10:19:39;15.00;;;2.25;;
11247;SDS011;5681;53.316;13.950;2023-02-19T10:22:05;10.20;;;1.83;;
11247;SDS011;5681;53.316;13.950;2023-02-19T10:24:36;10.60;;;1.93;;
11247;SDS011;5681;53.316;13.950;2023-02-19T10:27:05;9.93;;;1.90;;
11247;SDS011;5681;53.316;13.950;2023-02-19T10:29:34;7.22;;;1.70;;
11247;SDS011;5681;53.316;13.950;2023-02-19T10:32:10;9.32;;;2.10;;
11247;SDS011;5681;53.316;13.950;2023-02-19T10:34:38;7.22;;;1.60;;
11247;SDS011;5681;53.316;13.950;2023-02-19T10:37:07;7.35;;;1.63;;
11247;SDS011;5681;53.316;13.950;2023-02-19T10:39:39;8.15;;;1.50;;
11247;SDS011;5681;53.316;13.950;2023-02-19T10:42:13;6.13;;;1.63;;
11247;SDS011;5681;53.316;13.950;2023-02-19T10:44:41;7.25;;;1.63;;
11247;SDS011;5681;53.316;13.950;2023-02-19T10:47:13;11.15;;;2.20;;
11247;SDS011;5681;53.316;13.950;2023-02-19T10:49:41;8.00;;;1.80;;
11247;SDS011;5681;53.316;13.950;2023-02-19T10:52:11;9.20;;;1.95;;
11247;SDS011;5681;53.316;13.950;2023-02-19T10:54:43;7.55;;;1.73;;
11247;SDS011;5681;53.316;13.950;2023-02-19T10:57:22;13.48;;;2.20;;
11247;SDS011;5681;53.316;13.950;2023-02-19T10:59:55;6.28;;;1.55;;
11247;SDS011;5681;53.316;13.950;2023-02-19T11:02:22;5.35;;;1.80;;
11247;SDS011;5681;53.316;13.950;2023-02-19T11:05:01;7.20;;;1.67;;
11247;SDS011;5681;53.316;13.950;2023-02-19T11:07:30;9.75;;;1.75;;
11247;SDS011;5681;53.316;13.950;2023-02-19T11:09:58;7.45;;;1.75;;
11247;SDS011;5681;53.316;13.950;2023-02-19T11:12:26;5.95;;;1.60;;
11247;SDS011;5681;53.316;13.950;2023-02-19T11:14:53;6.65;;;1.60;;
11247;SDS011;5681;53.316;13.950;2023-02-19T11:17:21;9.35;;;1.60;;
11247;SDS011;5681;53.316;13.950;2023-02-19T11:19:49;9.27;;;1.67;;
11247;SDS011;5681;53.316;13.950;2023-02-19T11:22:18;7.00;;;1.52;;
11247;SDS011;5681;53.316;13.950;2023-02-19T11:24:47;5.53;;;1.60;;
11247;SDS011;5681;53.316;13.950;2023-02-19T11:27:16;8.85;;;1.98;;
11247;SDS011;5681;53.316;13.950;2023-02-19T11:29:44;8.95;;;1.80;;
11247;SDS011;5681;53.316;13.950;2023-02-19T11:32:23;8.75;;;1.60;;
11247;SDS011;5681;53.316;13.950;2023-02-19T11:34:51;4.53;;;1.30;;
11247;SDS011;5681;53.316;13.950;2023-02-19T11:37:18;7.50;;;2.15;;
11247;SDS011;5681;53.316;13.950;2023-02-19T11:39:46;8.18;;;1.95;;
11247;SDS011;5681;53.316;13.950;2023-02-19T11:42:19;10.52;;;1.67;;
11247;SDS011;5681;53.316;13.950;2023-02-19T11:45:10;7.65;;;1.80;;
11247;SDS011;5681;53.316;13.950;2023-02-19T11:50:56;10.68;;;2.10;;
11247;SDS011;5681;53.316;13.950;2023-02-19T11:53:30;7.25;;;1.77;;
11247;SDS011;5681;53.316;13.950;2023-02-19T11:56:13;9.88;;;1.50;;
11247;SDS011;5681;53.316;13.950;2023-02-19T11:58:49;5.00;;;1.55;;
11247;SDS011;5681;53.316;13.950;2023-02-19T12:01:22;11.65;;;1.92;;
11247;SDS011;5681;53.316;13.950;2023-02-19T12:04:01;6.32;;;1.58;;
11247;SDS011;5681;53.316;13.950;2023-02-19T12:06:37;6.43;;;1.90;;
11247;SDS011;5681;53.316;13.950;2023-02-19T12:09:12;9.00;;;1.73;;
11247;SDS011;5681;53.316;13.950;2023-02-19T12:11:53;5.03;;;1.40;;
11247;SDS011;5681;53.316;13.950;2023-02-19T12:14:35;8.30;;;1.55;;
11247;SDS011;5681;53.316;13.950;2023-02-19T12:17:11;8.02;;;1.50;;
11247;SDS011;5681;53.316;13.950;2023-02-19T12:19:44;6.72;;;1.50;;
11247;SDS011;5681;53.316;13.950;2023-02-19T12:22:22;5.95;;;1.50;;
11247;SDS011;5681;53.316;13.950;2023-02-19T12:25:09;6.38;;;1.27;;
11247;SDS011;5681;53.316;13.950;2023-02-19T12:27:49;3.80;;;1.20;;
11247;SDS011;5681;53.316;13.950;2023-02-19T12:36:14;3.92;;;1.35;;
11247;SDS011;5681;53.316;13.950;2023-02-19T12:38:46;5.93;;;1.67;;
11247;SDS011;5681;53.316;13.950;2023-02-19T12:41:19;10.82;;;1.30;;
11247;SDS011;5681;53.316;13.950;2023-02-19T12:43:52;5.10;;;1.13;;
11247;SDS011;5681;53.316;13.950;2023-02-19T12:46:23;7.47;;;1.55;;
11247;SDS011;5681;53.316;13.950;2023-02-19T12:48:53;5.75;;;1.40;;
11247;SDS011;5681;53.316;13.950;2023-02-19T12:51:25;6.35;;;1.63;;
11247;SDS011;5681;53.316;13.950;2023-02-19T12:53:54;5.30;;;1.60;;
11247;SDS011;5681;53.316;13.950;2023-02-19T12:56:22;6.00;;;1.50;;
11247;SDS011;5681;53.316;13.950;2023-02-19T12:58:52;5.30;;;1.40;;
11247;SDS011;5681;53.316;13.950;2023-02-19T13:01:21;4.30;;;1.48;;
11247;SDS011;5681;53.316;13.950;2023-02-19T13:03:52;5.32;;;1.17;;
11247;SDS011;5681;53.316;13.950;2023-02-19T13:06:32;3.67;;;1.02;;
11247;SDS011;5681;53.316;13.950;2023-02-19T13:09:01;4.85;;;1.35;;
11247;SDS011;5681;53.316;13.950;2023-02-19T13:11:32;3.80;;;1.33;;
11247;SDS011;5681;53.316;13.950;2023-02-19T13:14:02;3.95;;;1.08;;
11247;SDS011;5681;53.316;13.950;2023-02-19T13:16:32;7.90;;;1.30;;
11247;SDS011;5681;53.316;13.950;2023-02-19T13:19:02;4.35;;;1.30;;
11247;SDS011;5681;53.316;13.950;2023-02-19T13:21:29;4.22;;;1.40;;
11247;SDS011;5681;53.316;13.950;2023-02-19T13:24:15;4.43;;;1.10;;
11247;SDS011;5681;53.316;13.950;2023-02-19T13:26:49;7.53;;;1.10;;
11247;SDS011;5681;53.316;13.950;2023-02-19T13:29:28;6.20;;;1.20;;
11247;SDS011;5681;53.316;13.950;2023-02-19T13:32:09;5.78;;;1.10;;
11247;SDS011;5681;53.316;13.950;2023-02-19T13:34:52;6.13;;;1.60;;
11247;SDS011;5681;53.316;13.950;2023-02-19T13:37:24;4.45;;;1.27;;
11247;SDS011;5681;53.316;13.950;2023-02-19T13:39:51;6.28;;;1.30;;
11247;SDS011;5681;53.316;13.950;2023-02-19T13:42:22;3.90;;;1.10;;
11247;SDS011;5681;53.316;13.950;2023-02-19T13:44:50;5.70;;;1.48;;
11247;SDS011;5681;53.316;13.950;2023-02-19T13:50:16;4.72;;;1.42;;
11247;SDS011;5681;53.316;13.950;2023-02-19T13:52:44;3.22;;;1.30;;
11247;SDS011;5681;53.316;13.950;2023-02-19T14:04:41;4.07;;;1.60;;
11247;SDS011;5681;53.316;13.950;2023-02-19T14:10:04;4.50;;;1.20;;
11247;SDS011;5681;53.316;13.950;2023-02-19T14:12:31;3.22;;;1.23;;
11247;SDS011;5681;53.316;13.950;2023-02-19T14:17:58;7.10;;;1.38;;
11247;SDS011;5681;53.316;13.950;2023-02-19T14:20:42;3.80;;;1.27;;
11247;SDS011;5681;53.316;13.950;2023-02-19T14:23:15;3.67;;;0.90;;
11247;SDS011;5681;53.316;13.950;2023-02-19T14:25:50;2.83;;;1.15;;
11247;SDS011;5681;53.316;13.950;2023-02-19T14:28:26;2.67;;;1.00;;
11247;SDS011;5681;53.316;13.950;2023-02-19T14:30:54;4.40;;;1.10;;
11247;SDS011;5681;53.316;13.950;2023-02-19T14:33:22;4.05;;;1.02;;
11247;SDS011;5681;53.316;13.950;2023-02-19T14:35:53;3.47;;;1.20;;
11247;SDS011;5681;53.316;13.950;2023-02-19T14:38:21;4.93;;;1.08;;
11247;SDS011;5681;53.316;13.950;2023-02-19T14:40:50;3.97;;;1.20;;
11247;SDS011;5681;53.316;13.950;2023-02-19T14:43:18;5.30;;;1.30;;
11247;SDS011;5681;53.316;13.950;2023-02-19T14:45:46;5.53;;;1.40;;
11247;SDS011;5681;53.316;13.950;2023-02-19T14:48:16;3.75;;;1.10;;
11247;SDS011;5681;53.316;13.950;2023-02-19T14:50:45;4.32;;;1.10;;
11247;SDS011;5681;53.316;13.950;2023-02-19T14:53:13;5.47;;;1.20;;
11247;SDS011;5681;53.316;13.950;2023-02-19T14:55:40;3.85;;;0.95;;
11247;SDS011;5681;53.316;13.950;2023-02-19T14:58:09;3.97;;;1.10;;
11247;SDS011;5681;53.316;13.950;2023-02-19T15:00:39;3.72;;;1.20;;
11247;SDS011;5681;53.316;13.950;2023-02-19T15:03:20;6.35;;;1.30;;
11247;SDS011;5681;53.316;13.950;2023-02-19T15:05:52;1.70;;;0.75;;
11247;SDS011;5681;53.316;13.950;2023-02-19T15:08:23;2.60;;;1.00;;
11247;SDS011;5681;53.316;13.950;2023-02-19T15:10:52;3.22;;;0.88;;
11247;SDS011;5681;53.316;13.950;2023-02-19T15:13:20;2.30;;;1.00;;
11247;SDS011;5681;53.316;13.950;2023-02-19T15:15:50;2.30;;;0.63;;
11247;SDS011;5681;53.316;13.950;2023-02-19T15:18:17;2.97;;;1.02;;
11247;SDS011;5681;53.316;13.950;2023-02-19T15:20:45;5.72;;;1.00;;
11247;SDS011;5681;53.316;13.950;2023-02-19T15:23:13;4.55;;;1.13;;
11247;SDS011;5681;53.316;13.950;2023-02-19T15:25:45;4.63;;;1.27;;
11247;SDS011;5681;53.316;13.950;2023-02-19T15:28:19;3.72;;;1.13;;
11247;SDS011;5681;53.316;13.950;2023-02-19T15:30:46;4.80;;;1.02;;